createdAt,value
2023-03-04T00:02:48.104Z,1.53
2023-03-04T00:05:14.610Z,1.42
2023-03-04T00:07:41.031Z,1.43
2023-03-04T00:10:07.771Z,1.53
2023-03-04T00:12:34.197Z,1.41
2023-03-04T00:15:11.459Z,1.53
2023-03-04T00:17:39.568Z,1.50
2023-03-04T00:20:06.420Z,1.59
2023-03-04T00:23:02.381Z,1.48
2023-03-04T00:25:28.977Z,1.59
2023-03-04T00:27:55.430Z,1.69
2023-03-04T00:30:21.842Z,1.66
2023-03-04T00:32:48.254Z,1.73
2023-03-04T00:35:14.673Z,1.79
2023-03-04T00:37:53.909Z,1.76
2023-03-04T00:40:22.160Z,1.85
2023-03-04T00:42:48.616Z,1.83
2023-03-04T00:45:15.123Z,1.86
2023-03-04T00:47:41.588Z,1.79
2023-03-04T00:53:04.693Z,1.82
2023-03-04T00:55:34.221Z,1.89
2023-03-04T00:58:00.983Z,1.87
2023-03-04T01:00:31.331Z,1.90
2023-03-04T01:02:57.854Z,1.99
2023-03-04T01:05:24.312Z,1.92
2023-03-04T01:07:51.866Z,1.82
2023-03-04T01:10:19.373Z,1.87
2023-03-04T01:12:45.872Z,1.80
2023-03-04T01:15:13.239Z,1.97
2023-03-04T01:17:43.783Z,1.90
2023-03-04T01:20:11.763Z,1.94
2023-03-04T01:22:41.365Z,1.98
2023-03-04T01:25:08.066Z,1.93
2023-03-04T01:27:34.568Z,1.92
2023-03-04T01:30:01.051Z,1.84
2023-03-04T01:35:08.435Z,1.99
2023-03-04T01:37:34.944Z,2.04
2023-03-04T01:42:42.262Z,2.15
2023-03-04T01:45:12.165Z,2.18
2023-03-04T01:47:39.044Z,2.00
2023-03-04T01:50:10.847Z,2.15
2023-03-04T01:52:38.787Z,2.17
2023-03-04T01:55:10.524Z,2.14
2023-03-04T01:57:39.277Z,2.23
2023-03-04T02:00:20.319Z,2.21
2023-03-04T02:02:48.157Z,2.28
2023-03-04T02:05:17.801Z,2.18
2023-03-04T02:07:46.115Z,2.27
2023-03-04T02:17:33.729Z,2.36
2023-03-04T02:20:10.458Z,2.42
2023-03-04T02:22:39.836Z,2.39
2023-03-04T02:25:15.924Z,2.37
2023-03-04T02:27:42.967Z,2.47
2023-03-04T02:30:17.744Z,2.44
2023-03-04T02:32:44.738Z,2.48
2023-03-04T02:35:16.770Z,2.45
2023-03-04T02:37:50.032Z,2.52
2023-03-04T02:47:17.812Z,2.47
2023-03-04T02:49:44.578Z,2.52
2023-03-04T02:52:14.954Z,2.57
2023-03-04T02:54:41.362Z,2.69
2023-03-04T02:59:50.006Z,2.57
2023-03-04T03:02:16.481Z,2.72
2023-03-04T03:04:42.927Z,2.71
2023-03-04T03:07:16.280Z,2.73
2023-03-04T03:09:43.107Z,2.72
2023-03-04T03:12:14.886Z,2.65
2023-03-04T03:17:22.606Z,2.62
2023-03-04T03:19:49.125Z,2.72
2023-03-04T03:22:21.733Z,2.64
2023-03-04T03:27:38.280Z,2.74
2023-03-04T03:30:09.917Z,2.69
2023-03-04T03:32:37.649Z,2.72
2023-03-04T03:38:24.828Z,2.72
2023-03-04T03:40:59.036Z,2.71
2023-03-04T03:43:29.079Z,2.78
2023-03-04T03:45:56.512Z,2.71
2023-03-04T03:48:25.257Z,2.77
2023-03-04T03:50:52.792Z,2.64
2023-03-04T03:53:19.178Z,2.70
2023-03-04T03:55:45.832Z,2.86
2023-03-04T04:01:42.796Z,2.92
2023-03-04T04:04:15.672Z,2.90
2023-03-04T04:09:21.336Z,2.77
2023-03-04T04:11:48.693Z,2.95
2023-03-04T04:14:18.565Z,2.90
2023-03-04T04:16:46.387Z,2.97
2023-03-04T04:19:17.292Z,3.09
2023-03-04T04:21:43.824Z,3.03
2023-03-04T04:24:10.899Z,2.94
2023-03-04T04:26:37.393Z,2.99
2023-03-04T04:29:06.010Z,2.98
2023-03-04T04:31:34.681Z,2.96
2023-03-04T04:34:01.418Z,2.97
2023-03-04T04:36:42.544Z,2.96
2023-03-04T04:39:12.230Z,3.08
2023-03-04T04:41:49.839Z,3.09
2023-03-04T04:47:01.857Z,3.02
2023-03-04T04:49:53.250Z,3.16
2023-03-04T04:52:35.981Z,3.02
2023-03-04T04:55:03.196Z,3.13
2023-03-04T04:57:32.296Z,3.15
2023-03-04T05:00:12.673Z,3.12
2023-03-04T05:02:39.758Z,3.16
2023-03-04T05:07:50.057Z,3.11
2023-03-04T05:10:16.763Z,3.17
2023-03-04T05:15:30.420Z,3.11
2023-03-04T05:17:57.778Z,3.18
2023-03-04T05:23:05.605Z,3.27
2023-03-04T05:25:35.061Z,3.19
2023-03-04T05:28:20.232Z,3.28
2023-03-04T05:30:54.572Z,3.24
2023-03-04T05:33:21.480Z,3.26
2023-03-04T05:38:46.563Z,3.40
2023-03-04T05:41:13.077Z,3.38
2023-03-04T05:43:42.954Z,3.37
2023-03-04T05:49:41.912Z,3.29
2023-03-04T05:55:48.355Z,3.28
2023-03-04T05:58:19.443Z,3.34
2023-03-04T06:04:18.017Z,3.21
2023-03-04T06:06:46.689Z,3.31
2023-03-04T06:12:07.984Z,3.38
2023-03-04T06:14:36.874Z,3.24
2023-03-04T06:22:30.020Z,3.21
2023-03-04T06:27:44.743Z,3.31
2023-03-04T06:30:46.944Z,3.34
2023-03-04T06:36:41.855Z,3.48
2023-03-04T06:39:16.851Z,3.57
2023-03-04T06:41:43.712Z,3.52
2023-03-04T06:44:45.142Z,3.56
2023-03-04T06:50:43.041Z,3.57
2023-03-04T06:53:19.466Z,3.40
2023-03-04T06:56:05.246Z,3.55
2023-03-04T06:58:34.230Z,3.56
2023-03-04T07:01:36.489Z,3.64
2023-03-04T07:11:13.911Z,3.48
2023-03-04T07:17:15.132Z,3.56
2023-03-04T07:26:22.448Z,3.62
2023-03-04T07:28:49.304Z,3.75
2023-03-04T07:31:32.570Z,3.70
2023-03-04T07:44:13.328Z,4.00
2023-03-04T07:46:46.251Z,3.88
2023-03-04T07:49:17.242Z,3.86
2023-03-04T07:51:45.312Z,3.83
2023-03-04T07:55:39.766Z,3.98
2023-03-04T08:18:05.227Z,3.98
2023-03-04T08:57:50.869Z,4.41
2023-03-04T09:00:17.636Z,4.44
2023-03-04T09:02:44.227Z,4.38
2023-03-04T09:05:13.177Z,4.41
2023-03-04T09:07:47.333Z,4.31
2023-03-04T09:10:34.401Z,4.45
2023-03-04T09:16:11.017Z,4.65
2023-03-04T09:29:50.609Z,5.50
2023-03-04T09:32:19.943Z,5.07
2023-03-04T09:34:46.486Z,5.33
2023-03-04T09:37:13.490Z,5.09
2023-03-04T09:39:53.380Z,5.44
2023-03-04T09:42:59.462Z,4.93
2023-03-04T09:57:26.436Z,5.39
2023-03-04T10:00:20.544Z,5.40
2023-03-04T10:03:16.266Z,5.30
2023-03-04T10:06:02.383Z,5.29
2023-03-04T10:17:07.871Z,5.67
2023-03-04T10:23:20.378Z,5.67
2023-03-04T10:28:27.512Z,5.52
2023-03-04T10:31:03.486Z,5.28
2023-03-04T10:34:52.547Z,5.25
2023-03-04T10:37:43.977Z,5.37
2023-03-04T10:40:25.695Z,5.47
2023-03-04T10:43:00.356Z,5.08
2023-03-04T10:45:31.163Z,5.44
2023-03-04T10:48:29.142Z,5.37
2023-03-04T10:51:10.844Z,5.08
2023-03-04T10:57:23.529Z,5.71
2023-03-04T11:00:06.779Z,5.47
2023-03-04T11:05:25.534Z,5.84
2023-03-04T11:11:54.731Z,5.58
2023-03-04T12:48:01.500Z,5.62
2023-03-04T12:50:46.491Z,5.30
2023-03-04T12:54:01.432Z,5.59
2023-03-04T12:56:41.216Z,5.79
2023-03-04T13:02:46.331Z,5.24
2023-03-04T13:15:44.651Z,5.36
2023-03-04T13:21:55.541Z,5.23
2023-03-04T13:24:52.711Z,5.54
2023-03-04T13:31:52.626Z,5.30
2023-03-04T13:41:58.143Z,5.05
2023-03-04T13:44:57.127Z,5.29
2023-03-04T19:13:31.032Z,3.52
2023-03-04T19:16:57.556Z,3.84
2023-03-04T19:19:32.899Z,3.56
2023-03-04T22:02:03.549Z,3.15
2023-03-04T22:04:30.369Z,2.82
2023-03-04T22:09:41.910Z,2.58
2023-03-04T22:12:39.944Z,3.09
2023-03-04T22:25:28.148Z,3.20
2023-03-04T22:28:22.261Z,3.06
2023-03-04T22:34:24.725Z,2.88
2023-03-04T22:36:56.346Z,2.84
2023-03-04T22:42:43.498Z,3.05
2023-03-04T22:45:15.784Z,2.79
2023-03-04T22:51:58.123Z,2.83
2023-03-04T23:17:11.864Z,3.18
2023-03-04T23:19:43.179Z,2.80
2023-03-04T23:22:10.105Z,2.84
2023-03-04T23:24:37.053Z,3.14
2023-03-04T23:33:31.712Z,2.96
2023-03-04T23:35:58.235Z,3.14
2023-03-04T23:38:24.940Z,2.90
2023-03-04T23:40:52.674Z,3.13
2023-03-04T23:43:34.402Z,2.81
2023-03-04T23:46:05.093Z,2.42
2023-03-04T23:48:32.224Z,2.37
2023-03-04T23:50:59.529Z,2.86
2023-03-04T23:53:26.191Z,2.62
2023-03-04T23:55:52.671Z,3.18
2023-03-04T23:58:21.418Z,3.00
